Time;durP1;ratioP1;P1;durP2;ratioP2;P2;SDS_P1;SDS_P2;PMS_P1;PMS_P2;Temp;Humidity;BMP_temperature;BMP_pressure;BME280_temperature;BME280_humidity;BME280_pressure;Samples;Min_cycle;Max_cycle;Signal;HPM_P1;HPM_P2
2021/12/17 00:03:06;;;;;;;5.55;4.53;;;14.50;73.90;;;;;;4639312;30;20389;-71
2021/12/17 00:05:06;;;;;;;5.18;3.88;;;14.50;73.80;;;;;;4635854;30;20070;-72
2021/12/17 00:07:35;;;;;;;4.40;3.55;;;14.50;73.80;;;;;;4651469;30;20054;-72
2021/12/17 00:10:12;;;;;;;6.18;4.28;;;14.50;73.80;;;;;;4650856;30;20086;-72
2021/12/17 00:12:38;;;;;;;6.47;4.20;;;14.40;73.60;;;;;;4651094;30;20054;-72
2021/12/17 00:15:05;;;;;;;5.07;3.97;;;14.40;73.80;;;;;;4650904;30;20133;-71
2021/12/17 00:17:35;;;;;;;4.93;3.72;;;14.40;73.80;;;;;;4636042;30;20050;-71
2021/12/17 00:40:23;;;;;;;5.18;3.70;;;14.40;73.90;;;;;;4598405;31;20053;-72
2021/12/17 00:53:05;;;;;;;6.63;3.38;;;14.30;73.70;;;;;;4633815;31;20174;-72
2021/12/17 00:55:31;;;;;;;4.57;3.17;;;14.40;73.80;;;;;;4633441;31;20095;-71
2021/12/17 00:57:57;;;;;;;4.50;3.00;;;14.40;73.70;;;;;;4618555;31;20098;-72
2021/12/17 01:00:23;;;;;;;5.72;3.22;;;14.40;73.60;;;;;;4633487;31;20063;-72
2021/12/17 01:02:49;;;;;;;3.38;2.58;;;14.40;73.50;;;;;;4642735;30;20373;-72
2021/12/17 01:05:20;;;;;;;4.70;2.63;;;14.40;73.50;;;;;;4650571;30;20384;-72
2021/12/17 01:07:48;;;;;;;3.33;2.83;;;14.40;73.40;;;;;;4649657;30;20165;-72
2021/12/17 01:10:30;;;;;;;4.50;2.92;;;14.40;73.50;;;;;;4650793;30;20110;-72
2021/12/17 01:12:57;;;;;;;3.45;2.40;;;14.40;73.50;;;;;;4650054;30;20063;-72
2021/12/17 01:15:23;;;;;;;3.38;2.63;;;14.40;73.50;;;;;;4650292;30;20050;-72
2021/12/17 01:17:54;;;;;;;3.55;2.58;;;14.40;74.20;;;;;;4650708;30;20070;-72
2021/12/17 01:23:00;;;;;;;5.28;3.30;;;14.40;73.50;;;;;;4650089;30;20059;-72
2021/12/17 01:36:30;;;;;;;3.03;2.58;;;14.20;73.70;;;;;;4633286;30;20063;-71
2021/12/17 01:44:11;;;;;;;3.65;2.78;;;14.20;73.80;;;;;;4619244;31;20108;-72
2021/12/17 01:46:38;;;;;;;4.90;3.13;;;14.20;73.70;;;;;;4633431;31;20134;-72
2021/12/17 02:00:15;;;;;;;4.03;3.05;;;14.20;73.70;;;;;;4626305;31;20067;-72
2021/12/17 02:02:46;;;;;;;4.90;3.55;;;14.10;73.50;;;;;;4635720;30;20477;-72
2021/12/17 02:05:13;;;;;;;4.00;3.00;;;14.20;73.80;;;;;;4636409;31;20065;-72
2021/12/17 02:07:39;;;;;;;4.03;3.10;;;14.20;73.80;;;;;;4636186;31;20055;-72
2021/12/17 02:29:22;;;;;;;4.80;3.80;;;14.10;73.80;;;;;;4635661;31;20481;-72
2021/12/17 02:31:55;;;;;;;5.80;4.53;;;14.00;73.60;;;;;;4637841;30;20445;-72
2021/12/17 02:34:39;;;;;;;5.60;4.05;;;14.10;73.90;;;;;;4652566;30;20058;-72
2021/12/17 02:37:09;;;;;;;5.00;4.05;;;14.00;73.80;;;;;;4652546;30;20094;-72
2021/12/17 02:48:15;;;;;;;6.57;4.40;;;14.10;73.60;;;;;;4600158;31;20211;-72
2021/12/17 02:50:46;;;;;;;5.50;4.70;;;14.00;73.80;;;;;;4643230;30;20173;-72
2021/12/17 02:53:14;;;;;;;5.55;4.35;;;14.00;73.70;;;;;;4652189;30;20059;-72
2021/12/17 02:55:46;;;;;;;4.95;4.40;;;13.90;73.80;;;;;;4652242;30;20051;-72
2021/12/17 02:58:12;;;;;;;6.25;4.38;;;14.00;73.90;;;;;;4651902;30;20431;-72
2021/12/17 03:00:40;;;;;;;6.05;4.18;;;14.00;73.90;;;;;;4651947;30;20054;-71
2021/12/17 03:03:07;;;;;;;6.45;4.80;;;14.00;73.80;;;;;;4650871;30;20059;-72
2021/12/17 03:05:34;;;;;;;5.55;4.00;;;14.00;73.80;;;;;;4651889;30;20059;-72
2021/12/17 03:08:00;;;;;;;5.82;4.72;;;14.00;73.60;;;;;;4652203;30;20130;-72
2021/12/17 03:10:27;;;;;;;5.38;4.13;;;14.00;73.60;;;;;;4651851;30;20541;-72
2021/12/17 03:13:00;;;;;;;6.03;4.68;;;14.00;73.60;;;;;;4651776;30;20142;-72
2021/12/17 03:15:47;;;;;;;8.20;4.60;;;13.90;73.60;;;;;;4651880;30;20413;-72
2021/12/17 03:23:43;;;;;;;5.85;4.45;;;13.80;73.80;;;;;;4651547;30;20094;-71
2021/12/17 03:26:24;;;;;;;7.00;4.72;;;13.90;73.70;;;;;;4651580;30;20058;-71
2021/12/17 03:28:53;;;;;;;5.57;3.88;;;13.90;73.70;;;;;;4651619;30;20050;-71
2021/12/17 03:31:20;;;;;;;5.15;3.63;;;14.00;73.80;;;;;;4636699;30;20059;-71
2021/12/17 03:33:49;;;;;;;6.00;4.25;;;13.90;73.70;;;;;;4636437;30;20063;-71
2021/12/17 03:36:17;;;;;;;6.00;4.57;;;13.90;73.70;;;;;;4635011;31;20051;-71
2021/12/17 03:38:44;;;;;;;6.63;4.15;;;13.90;73.70;;;;;;4634681;31;20047;-72
2021/12/17 03:43:36;;;;;;;5.78;4.07;;;14.00;73.70;;;;;;4634760;31;20218;-71
2021/12/17 03:46:02;;;;;;;7.35;4.22;;;14.00;73.50;;;;;;4634497;31;20471;-73
2021/12/17 03:48:34;;;;;;;5.13;3.40;;;14.00;73.50;;;;;;4633997;31;20055;-71
2021/12/17 03:51:00;;;;;;;6.53;4.30;;;14.00;73.50;;;;;;4634159;31;20113;-71
2021/12/17 03:53:26;;;;;;;6.85;3.97;;;14.00;73.40;;;;;;4634810;31;20495;-71
2021/12/17 03:55:52;;;;;;;6.00;3.63;;;14.00;73.40;;;;;;4634472;31;20055;-71
2021/12/17 03:58:18;;;;;;;6.75;3.80;;;14.00;73.50;;;;;;4634016;31;20059;-72
2021/12/17 04:00:45;;;;;;;4.95;3.50;;;14.00;73.40;;;;;;4634312;31;20067;-72
2021/12/17 04:03:11;;;;;;;7.13;4.72;;;14.00;73.40;;;;;;4648119;30;20062;-72
2021/12/17 04:05:37;;;;;;;6.47;4.10;;;14.00;73.40;;;;;;4636276;30;20055;-71
2021/12/17 04:08:03;;;;;;;5.50;3.78;;;14.00;73.90;;;;;;4651401;30;20464;-72
2021/12/17 04:10:38;;;;;;;7.03;4.05;;;14.00;73.30;;;;;;4651081;30;20055;-71
2021/12/17 04:13:15;;;;;;;6.25;4.25;;;14.00;73.30;;;;;;4651168;30;20062;-71
2021/12/17 04:15:43;;;;;;;5.78;3.45;;;14.00;73.30;;;;;;4650678;30;20055;-72
2021/12/17 04:18:10;;;;;;;6.15;3.70;;;14.00;73.30;;;;;;4635954;30;20058;-72
2021/12/17 04:20:36;;;;;;;7.50;4.43;;;13.90;73.30;;;;;;4650042;30;20059;-71
2021/12/17 04:23:03;;;;;;;6.10;3.95;;;13.90;73.20;;;;;;4651377;30;20142;-72
2021/12/17 04:25:29;;;;;;;7.03;4.35;;;13.90;73.30;;;;;;4650845;30;20058;-72
2021/12/17 04:27:57;;;;;;;7.25;3.90;;;13.90;73.30;;;;;;4651183;30;20121;-72
2021/12/17 04:30:23;;;;;;;6.00;3.88;;;14.00;73.30;;;;;;4651068;30;20058;-72
2021/12/17 04:32:49;;;;;;;6.72;3.45;;;14.00;73.30;;;;;;4639502;30;20058;-72
2021/12/17 04:35:15;;;;;;;7.13;4.07;;;14.00;73.30;;;;;;4633783;31;20055;-72
2021/12/17 04:37:41;;;;;;;6.65;3.65;;;14.00;73.30;;;;;;4633820;31;20105;-72
2021/12/17 04:40:07;;;;;;;6.75;3.80;;;14.00;73.20;;;;;;4633797;31;20090;-72
2021/12/17 04:45:02;;;;;;;5.90;3.42;;;14.00;73.10;;;;;;4650898;30;20437;-72
2021/12/17 04:58:11;;;;;;;6.57;3.22;;;14.00;73.20;;;;;;4635525;30;20149;-72
2021/12/17 05:00:37;;;;;;;7.30;3.92;;;14.00;73.10;;;;;;4650489;30;20175;-72
2021/12/17 05:03:03;;;;;;;5.57;3.53;;;14.00;73.20;;;;;;4649923;30;20058;-72
2021/12/17 05:05:31;;;;;;;6.45;3.72;;;13.90;73.20;;;;;;4650376;30;20055;-72
2021/12/17 05:08:08;;;;;;;6.75;4.03;;;13.80;73.20;;;;;;4649709;30;20133;-69
2021/12/17 05:18:55;;;;;;;6.60;3.95;;;14.20;72.70;;;;;;4650155;30;20055;-72
2021/12/17 05:21:23;;;;;;;7.63;4.25;;;14.40;72.50;;;;;;4650487;30;20457;-71
2021/12/17 05:23:51;;;;;;;10.77;4.70;;;14.50;71.60;;;;;;4650536;30;20063;-73
2021/12/17 05:26:20;;;;;;;7.50;4.30;;;14.60;71.10;;;;;;4646580;30;20051;-73
2021/12/17 05:28:47;;;;;;;7.20;4.88;;;14.70;70.50;;;;;;4637949;30;20055;-74
2021/12/17 05:31:15;;;;;;;10.18;4.40;;;14.70;70.00;;;;;;4634050;30;20063;-72
2021/12/17 05:33:40;;;;;;;7.90;4.55;;;14.70;69.60;;;;;;4638053;30;20051;-72
2021/12/17 05:36:06;;;;;;;9.25;5.20;;;14.80;69.30;;;;;;4653216;30;20125;-71
2021/12/17 05:38:32;;;;;;;9.30;5.88;;;14.80;69.00;;;;;;4653080;30;20550;-73
2021/12/17 05:40:58;;;;;;;9.05;5.45;;;14.90;68.80;;;;;;4653381;30;20073;-74
2021/12/17 05:43:24;;;;;;;9.55;4.68;;;14.90;68.60;;;;;;4637470;30;20063;-67
2021/12/17 05:46:05;;;;;;;9.48;5.53;;;14.90;68.40;;;;;;4636182;31;20051;-69
2021/12/17 05:48:30;;;;;;;7.72;4.80;;;14.90;68.30;;;;;;4630448;30;20067;-71
2021/12/17 05:50:59;;;;;;;11.93;5.90;;;14.90;68.90;;;;;;4653116;30;20054;-72
2021/12/17 05:53:25;;;;;;;10.77;5.10;;;14.90;71.20;;;;;;4653147;30;20483;-71
2021/12/17 05:55:52;;;;;;;9.65;5.32;;;14.90;71.80;;;;;;4652864;30;20114;-72
2021/12/17 05:58:18;;;;;;;7.60;3.83;;;15.00;72.90;;;;;;4652714;30;20062;-71
2021/12/17 06:00:45;;;;;;;8.23;4.10;;;15.20;71.70;;;;;;4630039;31;20479;-72
2021/12/17 06:03:12;;;;;;;5.82;3.58;;;15.40;71.10;;;;;;4647681;30;20078;-73
2021/12/17 06:05:38;;;;;;;7.22;3.13;;;15.50;71.10;;;;;;4643554;30;20055;-72
2021/12/17 06:08:04;;;;;;;5.80;3.22;;;15.70;70.90;;;;;;4637997;30;20137;-74
2021/12/17 06:10:30;;;;;;;8.38;3.53;;;15.80;70.90;;;;;;4638026;30;20079;-69
2021/12/17 06:12:56;;;;;;;8.43;2.95;;;15.90;71.00;;;;;;4637519;30;20051;-76
2021/12/17 06:15:23;;;;;;;9.27;3.75;;;16.00;71.30;;;;;;4623791;30;20059;-76
2021/12/17 06:17:50;;;;;;;9.77;3.40;;;16.10;71.50;;;;;;4652778;30;20114;-79
2021/12/17 06:20:16;;;;;;;14.23;3.38;;;16.10;72.10;;;;;;4652663;30;20055;-76
2021/12/17 06:22:43;;;;;;;10.50;3.08;;;16.10;72.50;;;;;;4648601;30;20112;-75
2021/12/17 06:25:10;;;;;;;17.80;3.70;;;16.20;72.80;;;;;;4635958;30;20134;-80
2021/12/17 06:27:36;;;;;;;11.75;3.20;;;16.20;73.20;;;;;;4640330;30;20102;-80
2021/12/17 06:30:05;;;;;;;11.60;3.08;;;16.20;73.20;;;;;;4637188;30;20059;-78
2021/12/17 06:32:31;;;;;;;11.65;2.92;;;16.20;73.30;;;;;;4652248;30;20082;-75
2021/12/17 06:34:57;;;;;;;8.07;2.75;;;16.20;73.40;;;;;;4645550;30;20051;-78
2021/12/17 06:37:22;;;;;;;11.23;2.65;;;16.20;73.20;;;;;;4635618;31;20066;-77
2021/12/17 06:39:49;;;;;;;11.05;2.50;;;16.20;73.30;;;;;;4635679;31;20055;-78
2021/12/17 06:42:16;;;;;;;11.57;2.47;;;16.20;73.30;;;;;;4620979;31;20143;-75
2021/12/17 06:44:43;;;;;;;18.38;3.63;;;16.20;73.40;;;;;;4620744;31;20055;-81
2021/12/17 07:10:49;;;;;;;6.82;2.22;;;16.80;70.00;;;;;;4640234;30;20205;-77
2021/12/17 07:21:33;;;;;;;7.93;2.15;;;17.00;69.80;;;;;;4634580;31;20099;-73
2021/12/17 07:35:23;;;;;;;7.03;3.95;;;17.00;69.70;;;;;;4620258;31;20067;-77
2021/12/17 07:39:52;;;;;;;5.55;2.20;;;16.50;71.20;;;;;;4631725;30;20067;-76
2021/12/17 07:42:18;;;;;;;5.97;2.28;;;16.50;71.00;;;;;;4651458;30;20050;-75
2021/12/17 07:44:44;;;;;;;6.47;2.25;;;16.50;70.80;;;;;;4651748;30;20064;-75
2021/12/17 07:47:09;;;;;;;6.28;2.05;;;16.50;70.70;;;;;;4636738;30;20510;-75
2021/12/17 07:49:35;;;;;;;6.00;1.83;;;16.50;70.60;;;;;;4626081;31;20071;-74
2021/12/17 07:52:01;;;;;;;5.47;2.05;;;16.50;70.60;;;;;;4634772;31;20158;-76
2021/12/17 07:54:26;;;;;;;6.35;1.83;;;16.50;70.50;;;;;;4633790;31;20055;-78
2021/12/17 07:56:52;;;;;;;4.28;2.05;;;16.50;70.50;;;;;;4619178;31;20480;-76
2021/12/17 07:59:18;;;;;;;6.07;2.10;;;16.50;70.50;;;;;;4627063;30;20063;-74
2021/12/17 08:01:44;;;;;;;6.30;2.22;;;16.40;70.50;;;;;;4633396;30;20138;-77
2021/12/17 08:04:10;;;;;;;4.88;1.63;;;16.40;70.50;;;;;;4619381;31;20087;-75
2021/12/17 08:06:37;;;;;;;3.85;2.08;;;16.40;70.60;;;;;;4634191;31;20070;-76
2021/12/17 08:09:04;;;;;;;4.47;2.00;;;16.30;70.50;;;;;;4633461;31;20134;-76
2021/12/17 08:11:36;;;;;;;5.97;2.58;;;16.30;70.60;;;;;;4634175;30;20059;-77
2021/12/17 08:14:02;;;;;;;3.35;1.52;;;16.30;70.60;;;;;;4635392;30;20059;-75
2021/12/17 08:16:38;;;;;;;6.28;2.20;;;16.30;70.60;;;;;;4621943;30;20133;-75
2021/12/17 08:32:00;;;;;;;9.75;4.45;;;16.30;70.00;;;;;;4636343;30;20080;-81
2021/12/17 08:34:28;;;;;;;8.82;4.28;;;16.20;69.90;;;;;;4621535;30;20090;-80
2021/12/17 08:37:00;;;;;;;9.32;5.22;;;16.20;69.70;;;;;;4622309;30;20194;-82
2021/12/17 08:39:29;;;;;;;10.77;5.88;;;16.20;69.10;;;;;;4622231;30;20051;-80
2021/12/17 08:41:55;;;;;;;7.53;4.80;;;16.30;68.60;;;;;;4619224;30;20461;-82
2021/12/17 08:44:22;;;;;;;8.75;4.28;;;16.20;68.50;;;;;;4604847;31;20133;-82
2021/12/17 08:46:49;;;;;;;8.20;4.45;;;16.20;68.40;;;;;;4618828;31;20055;-81
2021/12/17 08:49:15;;;;;;;6.45;4.05;;;16.20;68.10;;;;;;4632560;31;20054;-82
2021/12/17 08:51:42;;;;;;;6.90;3.55;;;16.20;67.90;;;;;;4605301;30;20051;-81
2021/12/17 08:54:08;;;;;;;7.00;4.25;;;16.20;67.70;;;;;;4649579;30;20058;-82
2021/12/17 08:56:36;;;;;;;6.25;3.97;;;16.10;67.80;;;;;;4649916;30;20046;-81
2021/12/17 08:59:07;;;;;;;10.10;3.55;;;16.10;67.80;;;;;;4621980;30;20352;-81
2021/12/17 09:01:33;;;;;;;10.70;4.55;;;16.10;67.90;;;;;;4621893;30;20047;-83
2021/12/17 09:04:02;;;;;;;6.50;3.83;;;16.10;68.00;;;;;;4619000;31;20059;-83
2021/12/17 09:06:28;;;;;;;5.15;3.13;;;16.10;68.10;;;;;;4605807;31;20369;-81
2021/12/17 09:08:56;;;;;;;6.70;4.10;;;16.10;68.10;;;;;;4608354;31;20369;-80
2021/12/17 09:11:23;;;;;;;5.60;3.20;;;16.00;68.20;;;;;;4608260;31;20054;-77
2021/12/17 09:13:50;;;;;;;5.65;3.00;;;16.00;68.40;;;;;;4636434;30;20516;-76
2021/12/17 09:16:17;;;;;;;8.07;3.30;;;16.00;68.60;;;;;;4653982;30;20113;-76
2021/12/17 09:18:45;;;;;;;6.32;3.20;;;16.00;68.60;;;;;;4653664;30;20130;-75
2021/12/17 09:21:10;;;;;;;6.88;2.80;;;16.00;69.20;;;;;;4624767;30;20070;-75
2021/12/17 09:23:36;;;;;;;8.05;2.90;;;16.00;68.60;;;;;;4639838;30;20118;-74
2021/12/17 09:26:02;;;;;;;7.05;3.00;;;16.00;68.80;;;;;;4621911;31;20060;-75
2021/12/17 09:28:29;;;;;;;10.18;2.58;;;16.10;69.40;;;;;;4636912;31;20071;-73
2021/12/17 09:30:55;;;;;;;7.05;2.90;;;16.20;69.10;;;;;;4635578;31;20069;-74
2021/12/17 09:33:21;;;;;;;5.13;2.58;;;16.20;68.80;;;;;;4632806;30;20055;-74
2021/12/17 09:35:47;;;;;;;5.13;2.35;;;16.30;68.70;;;;;;4653575;30;20439;-74
2021/12/17 09:38:12;;;;;;;6.82;1.90;;;16.30;68.60;;;;;;4639271;30;20079;-74
2021/12/17 09:40:38;;;;;;;6.22;2.38;;;16.40;68.60;;;;;;4653766;30;20070;-74
2021/12/17 09:43:04;;;;;;;3.83;1.63;;;16.40;68.50;;;;;;4629407;31;20067;-74
2021/12/17 09:45:30;;;;;;;7.32;1.92;;;16.40;68.50;;;;;;4636149;31;20060;-75
2021/12/17 09:47:56;;;;;;;5.53;1.75;;;16.40;68.50;;;;;;4636528;31;20102;-75
2021/12/17 09:50:22;;;;;;;8.13;2.00;;;16.40;68.50;;;;;;4636356;31;20102;-75
2021/12/17 09:52:49;;;;;;;4.97;2.00;;;16.40;68.60;;;;;;4643116;30;20058;-74
2021/12/17 09:55:14;;;;;;;4.60;1.50;;;16.50;68.60;;;;;;4653347;30;20053;-76
2021/12/17 09:57:40;;;;;;;3.50;1.48;;;16.50;68.50;;;;;;4653111;30;20046;-74
2021/12/17 10:00:13;;;;;;;2.08;1.08;;;16.50;68.50;;;;;;4653278;30;20392;-74
2021/12/17 10:02:43;;;;;;;4.57;1.38;;;16.60;68.40;;;;;;4642121;30;20078;-77
2021/12/17 10:05:12;;;;;;;5.38;1.42;;;16.60;68.40;;;;;;4636247;31;20086;-74
2021/12/17 10:07:38;;;;;;;3.53;0.85;;;16.60;68.40;;;;;;4636278;31;20059;-74
2021/12/17 10:10:06;;;;;;;2.10;0.88;;;16.60;68.50;;;;;;4635347;31;20067;-73
2021/12/17 10:12:34;;;;;;;2.72;0.98;;;16.60;68.40;;;;;;4636154;30;20402;-74
2021/12/17 10:15:15;;;;;;;2.28;0.90;;;16.60;68.40;;;;;;4636113;31;20139;-76
2021/12/17 10:17:57;;;;;;;2.55;0.90;;;16.70;68.40;;;;;;4620653;31;20066;-75
2021/12/17 10:20:24;;;;;;;2.22;0.98;;;16.70;68.30;;;;;;4620920;31;20067;-74
2021/12/17 10:23:11;;;;;;;2.55;1.00;;;16.70;68.30;;;;;;4646363;30;20210;-76
2021/12/17 10:25:43;;;;;;;3.38;0.95;;;16.70;68.30;;;;;;4653412;30;20377;-73
2021/12/17 10:28:11;;;;;;;2.67;0.70;;;16.70;68.40;;;;;;4651816;30;20059;-75
2021/12/17 10:30:39;;;;;;;2.00;0.68;;;16.70;68.40;;;;;;4652247;30;20059;-75
2021/12/17 10:33:08;;;;;;;2.83;0.70;;;16.70;68.40;;;;;;4639804;30;20473;-75
2021/12/17 10:35:35;;;;;;;2.63;0.80;;;16.70;68.40;;;;;;4621417;31;20542;-74
2021/12/17 10:38:10;;;;;;;1.10;0.55;;;16.70;68.40;;;;;;4635468;31;20087;-75
2021/12/17 10:40:49;;;;;;;3.85;0.80;;;16.70;68.40;;;;;;4635690;31;20071;-74
2021/12/17 10:43:30;;;;;;;1.35;0.57;;;16.70;68.40;;;;;;4633863;30;20058;-74
2021/12/17 10:46:11;;;;;;;1.70;0.43;;;16.70;68.40;;;;;;4652151;30;20063;-74
2021/12/17 10:54:20;;;;;;;1.20;0.70;;;16.40;71.20;;;;;;4636081;31;19928;-74
2021/12/17 10:56:54;;;;;;;3.10;0.82;;;16.50;70.70;;;;;;4634948;31;20464;-72
2021/12/17 10:59:28;;;;;;;2.85;0.73;;;16.40;71.40;;;;;;4635523;30;20371;-72
2021/12/17 11:01:59;;;;;;;1.90;0.55;;;16.30;72.00;;;;;;4638730;30;20098;-73
2021/12/17 11:04:28;;;;;;;2.13;0.60;;;16.20;72.10;;;;;;4652064;30;20054;-72
2021/12/17 11:06:56;;;;;;;2.90;0.70;;;16.20;72.20;;;;;;4652205;30;20094;-78
2021/12/17 11:09:45;;;;;;;3.88;0.82;;;16.30;71.90;;;;;;4625754;31;20055;-73
2021/12/17 11:12:13;;;;;;;6.32;1.23;;;16.40;72.40;;;;;;4634457;30;20063;-76
2021/12/17 11:14:44;;;;;;;3.85;0.80;;;16.50;72.90;;;;;;4650393;30;20059;-75
2021/12/17 11:17:14;;;;;;;7.50;1.10;;;16.50;73.30;;;;;;4651292;30;20465;-71
2021/12/17 11:19:41;;;;;;;4.82;1.25;;;16.70;73.60;;;;;;4638029;30;20377;-73
2021/12/17 11:22:08;;;;;;;10.18;1.65;;;16.70;73.00;;;;;;4634584;31;20060;-72
2021/12/17 11:24:35;;;;;;;5.10;1.30;;;16.70;73.60;;;;;;4617137;30;20070;-70
2021/12/17 11:27:06;;;;;;;5.50;1.20;;;16.80;73.90;;;;;;4651210;30;20054;-73
2021/12/17 11:29:32;;;;;;;8.88;1.33;;;16.80;73.30;;;;;;4651547;30;20058;-72
2021/12/17 11:32:04;;;;;;;4.60;1.02;;;16.80;73.30;;;;;;4651046;30;20107;-71
2021/12/17 11:34:33;;;;;;;5.93;1.17;;;16.80;73.20;;;;;;4642782;30;20385;-75
2021/12/17 11:37:01;;;;;;;5.13;1.08;;;16.80;73.20;;;;;;4627617;30;20058;-76
2021/12/17 11:39:35;;;;;;;2.97;0.70;;;16.80;72.70;;;;;;4636713;30;20059;-75
2021/12/17 11:42:13;;;;;;;;;;;16.80;72.10;;;;;;4638892;30;20062;-75
2021/12/17 11:44:52;;;;;;;3.15;0.85;;;16.80;71.40;;;;;;4650526;30;19939;-72
2021/12/17 11:47:17;;;;;;;6.68;0.93;;;16.70;71.70;;;;;;4632153;30;20141;-74
2021/12/17 11:49:51;;;;;;;2.17;0.75;;;16.70;71.90;;;;;;4640940;30;20142;-75
2021/12/17 11:52:39;;;;;;;3.13;0.70;;;16.70;72.00;;;;;;4634206;31;20091;-77
2021/12/17 11:55:20;;;;;;;3.65;0.98;;;16.70;72.00;;;;;;4634022;31;20059;-76
2021/12/17 11:57:48;;;;;;;2.70;0.65;;;16.70;72.00;;;;;;4633812;31;20058;-76
2021/12/17 12:00:32;;;;;;;0.95;0.30;;;16.70;72.10;;;;;;4619331;30;20126;-73
2021/12/17 12:03:16;;;;;;;4.63;0.68;;;16.70;72.10;;;;;;4648580;30;20067;-75
2021/12/17 12:05:44;;;;;;;3.30;0.68;;;16.70;72.00;;;;;;4635871;30;20074;-75
2021/12/17 12:08:29;;;;;;;2.25;0.60;;;16.70;72.00;;;;;;4622846;31;20070;-76
2021/12/17 12:11:12;;;;;;;2.75;0.40;;;16.70;72.00;;;;;;4633886;31;20070;-77
2021/12/17 12:13:46;;;;;;;1.65;0.68;;;16.70;71.90;;;;;;4619302;31;20085;-77
2021/12/17 12:16:23;;;;;;;3.67;0.60;;;16.70;72.00;;;;;;4633825;31;20458;-77
2021/12/17 12:18:52;;;;;;;3.50;0.73;;;16.70;72.20;;;;;;4636572;30;20125;-75
2021/12/17 12:21:22;;;;;;;9.80;0.60;;;16.70;72.40;;;;;;4650911;30;20059;-76
2021/12/17 12:23:54;;;;;;;5.03;1.13;;;16.70;72.30;;;;;;4650991;30;20098;-77
2021/12/17 12:26:25;;;;;;;9.32;0.70;;;16.40;71.90;;;;;;4650428;30;20555;-77
2021/12/17 12:29:26;;;;;;;3.47;0.80;;;16.10;71.40;;;;;;4650734;30;20468;-76
2021/12/17 12:31:57;;;;;;;5.82;1.05;;;15.80;73.00;;;;;;4631741;30;20449;-78
2021/12/17 12:34:35;;;;;;;6.85;0.65;;;15.60;73.90;;;;;;4636186;30;20373;-78
2021/12/17 12:37:25;;;;;;;12.93;1.25;;;15.40;75.00;;;;;;4651011;30;20054;-77
2021/12/17 12:39:54;;;;;;;8.68;1.00;;;15.60;75.20;;;;;;4650551;30;20108;-76
2021/12/17 12:42:24;;;;;;;10.93;1.02;;;15.80;74.80;;;;;;4650393;30;20165;-78
2021/12/17 12:44:50;;;;;;;13.23;1.55;;;15.90;74.50;;;;;;4649992;30;20066;-78
2021/12/17 12:47:36;;;;;;;14.40;1.83;;;16.00;74.20;;;;;;4650728;30;20058;-78
2021/12/17 12:50:06;;;;;;;7.80;1.40;;;16.10;73.80;;;;;;4650554;30;20364;-72
2021/12/17 12:52:32;;;;;;;10.55;1.40;;;16.10;72.30;;;;;;4650492;30;20055;-74
2021/12/17 12:55:24;;;;;;;10.05;1.52;;;16.00;73.60;;;;;;4635431;30;20069;-74
2021/12/17 12:57:59;;;;;;;12.02;1.25;;;16.10;73.80;;;;;;4632892;30;20123;-78
2021/12/17 13:00:27;;;;;;;12.18;1.20;;;16.20;73.60;;;;;;4633585;31;20521;-73
2021/12/17 13:03:00;;;;;;;9.70;1.35;;;16.30;73.40;;;;;;4633571;31;20059;-75
2021/12/17 13:05:26;;;;;;;9.20;1.00;;;16.40;73.20;;;;;;4618584;31;20377;-75
2021/12/17 13:07:57;;;;;;;10.88;1.88;;;16.60;72.90;;;;;;4633320;31;20051;-74
2021/12/17 13:10:29;;;;;;;8.32;1.20;;;16.60;72.70;;;;;;4633195;31;20048;-74
2021/12/17 13:13:00;;;;;;;7.78;1.10;;;16.70;72.50;;;;;;4633412;31;20066;-74
2021/12/17 13:23:24;;;;;;;8.05;1.17;;;16.90;71.90;;;;;;4618868;31;20071;-76
2021/12/17 13:26:05;;;;;;;6.32;1.10;;;17.00;71.80;;;;;;4633221;31;20095;-74
2021/12/17 13:29:09;;;;;;;8.30;0.95;;;17.00;71.80;;;;;;4633191;31;20142;-76
2021/12/17 13:31:44;;;;;;;6.03;0.70;;;17.00;71.70;;;;;;4633419;31;20376;-75
2021/12/17 13:34:22;;;;;;;7.22;0.82;;;17.00;71.80;;;;;;4633414;31;20055;-74
2021/12/17 13:37:01;;;;;;;6.38;0.68;;;17.00;71.70;;;;;;4633544;30;20067;-75
2021/12/17 13:39:40;;;;;;;14.40;0.70;;;17.00;71.70;;;;;;4647161;30;20087;-73
2021/12/17 13:42:07;;;;;;;8.80;0.95;;;17.00;71.80;;;;;;4650192;30;20058;-74
2021/12/17 13:44:40;;;;;;;6.40;0.63;;;16.90;71.90;;;;;;4635591;30;20413;-72
2021/12/17 13:47:15;;;;;;;6.53;0.73;;;16.90;71.90;;;;;;4650203;30;20066;-73
2021/12/17 13:50:06;;;;;;;4.57;0.40;;;16.60;73.40;;;;;;4650264;30;20380;-73
2021/12/17 13:52:35;;;;;;;6.53;0.63;;;16.60;73.00;;;;;;4645121;30;20078;-73
2021/12/17 13:55:05;;;;;;;6.13;0.77;;;16.70;72.50;;;;;;4653065;30;20066;-72
2021/12/17 13:57:32;;;;;;;5.95;0.80;;;16.70;71.90;;;;;;4652494;30;20491;-76
2021/12/17 14:00:09;;;;;;;5.70;0.80;;;16.80;71.70;;;;;;4653442;30;20063;-73
2021/12/17 14:02:36;;;;;;;7.00;0.50;;;16.80;71.80;;;;;;4652868;30;20066;-75
2021/12/17 14:05:07;;;;;;;6.70;0.55;;;16.60;73.20;;;;;;4652634;30;20051;-74
2021/12/17 14:07:35;;;;;;;4.97;0.55;;;16.70;72.40;;;;;;4652676;30;20150;-75
2021/12/17 14:10:14;;;;;;;4.43;0.82;;;16.70;72.10;;;;;;4638027;30;20059;-74
2021/12/17 14:12:42;;;;;;;6.60;1.13;;;16.80;72.00;;;;;;4638123;30;20147;-75
2021/12/17 14:15:24;;;;;;;5.70;0.70;;;16.80;71.90;;;;;;4652718;30;20059;-74
2021/12/17 14:17:58;;;;;;;8.10;1.08;;;17.00;71.70;;;;;;4637958;30;20522;-74
2021/12/17 14:20:27;;;;;;;6.63;1.20;;;17.00;71.50;;;;;;4637776;30;20115;-76
2021/12/17 14:22:55;;;;;;;10.35;0.70;;;17.10;71.30;;;;;;4652460;30;20065;-75
2021/12/17 14:25:35;;;;;;;8.88;0.50;;;17.10;71.60;;;;;;4648092;30;20050;-75
2021/12/17 14:28:11;;;;;;;8.70;0.77;;;17.10;71.20;;;;;;4652696;30;20161;-75
2021/12/17 14:30:38;;;;;;;5.20;0.50;;;17.20;71.00;;;;;;4650050;30;20117;-76
2021/12/17 14:33:18;;;;;;;4.53;0.60;;;17.20;71.00;;;;;;4637015;30;20500;-75
2021/12/17 14:36:02;;;;;;;3.95;0.68;;;17.30;70.90;;;;;;4651789;30;20053;-75
2021/12/17 14:38:37;;;;;;;3.75;0.32;;;17.30;70.80;;;;;;4621227;31;20051;-77
2021/12/17 14:41:04;;;;;;;8.23;0.75;;;17.30;70.70;;;;;;4635450;31;20067;-73
2021/12/17 14:43:45;;;;;;;7.72;0.43;;;17.40;70.70;;;;;;4635632;30;20067;-75
2021/12/17 14:46:23;;;;;;;3.30;0.60;;;17.40;70.70;;;;;;4635635;31;20066;-75
2021/12/17 15:02:55;;;;;;;5.32;0.75;;;17.80;70.10;;;;;;4635430;30;20063;-73
2021/12/17 15:05:24;;;;;;;9.60;0.60;;;17.80;69.80;;;;;;4647947;30;20083;-75
2021/12/17 15:07:52;;;;;;;4.90;0.32;;;17.90;69.70;;;;;;4635062;30;20055;-74
2021/12/17 15:10:19;;;;;;;7.15;0.57;;;17.90;69.60;;;;;;4635097;30;20067;-75
2021/12/17 15:12:46;;;;;;;7.45;0.98;;;17.90;69.50;;;;;;4635023;31;20063;-74
2021/12/17 15:15:24;;;;;;;5.43;0.60;;;17.90;69.60;;;;;;4634595;30;20059;-73
2021/12/17 15:17:51;;;;;;;7.82;0.50;;;17.90;69.50;;;;;;4634167;30;20063;-75
2021/12/17 15:20:24;;;;;;;7.03;0.70;;;17.80;69.70;;;;;;4618290;31;20056;-74
2021/12/17 15:22:51;;;;;;;7.47;0.90;;;17.80;69.70;;;;;;4626224;31;20058;-75
2021/12/17 15:25:18;;;;;;;6.53;0.65;;;17.70;69.60;;;;;;4635510;30;20131;-73
2021/12/17 15:27:44;;;;;;;7.90;0.98;;;17.60;69.90;;;;;;4634557;31;20059;-73
2021/12/17 15:30:16;;;;;;;7.95;0.68;;;17.50;70.30;;;;;;4635085;31;20062;-73
2021/12/17 15:32:43;;;;;;;8.45;0.93;;;17.40;69.30;;;;;;4634668;30;20059;-73
2021/12/17 15:35:11;;;;;;;11.55;0.50;;;17.10;70.20;;;;;;4634473;30;20187;-73
2021/12/17 15:37:39;;;;;;;4.57;0.55;;;17.20;70.50;;;;;;4634685;30;20055;-75
2021/12/17 15:40:06;;;;;;;8.05;0.85;;;17.20;70.40;;;;;;4634284;30;20457;-73
2021/12/17 15:42:32;;;;;;;5.43;0.80;;;17.30;70.30;;;;;;4634458;30;20127;-74
2021/12/17 15:44:57;;;;;;;4.05;0.60;;;17.30;70.20;;;;;;4633798;31;20083;-73
2021/12/17 15:47:23;;;;;;;4.93;0.52;;;17.30;70.20;;;;;;4633564;31;20047;-73
2021/12/17 15:49:49;;;;;;;5.57;0.40;;;17.40;70.10;;;;;;4633848;31;20070;-75
2021/12/17 15:52:15;;;;;;;5.32;0.28;;;17.40;70.00;;;;;;4633853;31;20077;-75
2021/12/17 15:54:41;;;;;;;5.70;0.40;;;17.40;69.90;;;;;;4633831;30;20091;-75
2021/12/17 15:57:07;;;;;;;4.60;0.40;;;17.40;69.80;;;;;;4632909;31;20110;-74
2021/12/17 15:59:34;;;;;;;5.50;0.60;;;17.50;69.80;;;;;;4635179;30;20063;-75
2021/12/17 16:02:02;;;;;;;2.92;0.38;;;17.50;69.80;;;;;;4650704;30;20413;-73
2021/12/17 16:04:31;;;;;;;5.60;0.60;;;17.50;69.70;;;;;;4651171;30;20416;-74
2021/12/17 16:06:59;;;;;;;3.65;0.55;;;17.50;69.60;;;;;;4650266;30;20077;-74
2021/12/17 16:22:39;;;;;;;;;;;17.50;69.50;;;;;;4635625;30;20121;-74
2021/12/17 16:25:06;;;;;;;3.25;0.30;;;17.50;69.40;;;;;;4650540;30;20022;-74
2021/12/17 16:27:32;;;;;;;2.33;0.40;;;17.50;69.50;;;;;;4650999;30;20137;-76
2021/12/17 16:29:58;;;;;;;2.05;0.40;;;17.50;69.50;;;;;;4650195;30;20078;-74
2021/12/17 16:32:24;;;;;;;3.65;0.30;;;17.50;69.50;;;;;;4635754;30;20067;-74
2021/12/17 16:34:49;;;;;;;4.10;0.60;;;17.50;69.50;;;;;;4650765;30;20115;-74
2021/12/17 16:37:15;;;;;;;3.58;0.35;;;17.50;69.50;;;;;;4651001;30;20491;-74